Air Quality Table

TIMESTAMP NO2 SO2 O3 PM10 PM2.5 CO TEMP HUM WS WD NO
2021-07-28 09:00 6.27 ug/m3 0.71 ug/m3 97.47 ug/m3 6.51 ug/m3 5.64 ug/m3 0.15 mg/m3 25.69 C 77.73 % 2.32 m/s 334.7 Deg 0.41 ug/m3
2021-07-28 01:00 0.87 ug/m3 0.79 ug/m3 128.43 ug/m3 6.11 ug/m3 5.14 ug/m3 0.15 mg/m3 27.59 C 48.39 % 1.26 m/s 183.36 Deg -0.02 ug/m3
2021-07-27 17:00 0.4 ug/m3 0.49 ug/m3 112.23 ug/m3 8.15 ug/m3 5.83 ug/m3 0.16 mg/m3 27.64 C 72.18 % 2.87 m/s 209.28 Deg 0.07 ug/m3
2021-07-27 09:00 3.7 ug/m3 0.26 ug/m3 93.29 ug/m3 10.88 ug/m3 7 ug/m3 0.18 mg/m3 24.99 C 86.69 % 1.55 m/s 141.97 Deg 0.27 ug/m3
2021-07-27 01:00 1.42 ug/m3 0.31 ug/m3 90.92 ug/m3 10.24 ug/m3 6.08 ug/m3 0.18 mg/m3 26.35 C 72 % 2.81 m/s 148.48 Deg 0.02 ug/m3
2021-07-26 17:00 1.04 ug/m3 0.55 ug/m3 104.18 ug/m3 9.7 ug/m3 5.28 ug/m3 0.15 mg/m3 28.72 C 59.05 % 3.67 m/s 205.15 Deg 0.1 ug/m3
2021-07-26 09:00 1.99 ug/m3 0.28 ug/m3 94.11 ug/m3 8.02 ug/m3 4.72 ug/m3 0.13 mg/m3 26.04 C 67.67 % 3.68 m/s 151.57 Deg 0.04 ug/m3
2021-07-26 01:00 4.05 ug/m3 0.31 ug/m3 86.98 ug/m3 6.48 ug/m3 4.58 ug/m3 0.14 mg/m3 26.7 C 67.12 % 2.82 m/s 161.59 Deg 0.02 ug/m3
2021-07-25 17:00 1.93 ug/m3 0.34 ug/m3 100.15 ug/m3 6.77 ug/m3 4.62 ug/m3 0.13 mg/m3 28.11 C 54.08 % 3.8 m/s 225.9 Deg 0.07 ug/m3
2021-07-25 09:00 0.45 ug/m3 0.28 ug/m3 96.96 ug/m3 6.35 ug/m3 4.53 ug/m3 0.13 mg/m3 24.91 C 77.26 % 1.59 m/s 213.24 Deg 0 ug/m3
2021-07-25 01:00 0.18 ug/m3 0.22 ug/m3 100.45 ug/m3 6.24 ug/m3 4.72 ug/m3 0.13 mg/m3 25.21 C 79.35 % 2.43 m/s 230.48 Deg -0.01 ug/m3
2021-07-24 17:00 2.47 ug/m3 0.59 ug/m3 103.47 ug/m3 5.29 ug/m3 5.22 ug/m3 0.13 mg/m3 26.79 C 67.25 % 4.06 m/s 264.45 Deg 0.37 ug/m3
2021-07-24 09:00 2.23 ug/m3 0.41 ug/m3 99.29 ug/m3 7.1 ug/m3 4.98 ug/m3 0.14 mg/m3 24.36 C 86.39 % 3.44 m/s 278.63 Deg 0.24 ug/m3
2021-07-24 01:00 N/A 0.39 ug/m3 105.95 ug/m3 7.28 ug/m3 5.4 ug/m3 0.12 mg/m3 25.45 C 70.65 % 1.95 m/s 240.92 Deg N/A
2021-07-23 17:00 N/A 0.98 ug/m3 121.66 ug/m3 10.9 ug/m3 6.82 ug/m3 0.13 mg/m3 26.81 C 72.48 % 3.36 m/s 264.83 Deg N/A
2021-07-23 09:00 N/A 0.77 ug/m3 83.92 ug/m3 14.49 ug/m3 6.99 ug/m3 0.13 mg/m3 24.55 C 86.51 % 3.51 m/s 121.03 Deg N/A
2021-07-23 01:00 N/A 0.53 ug/m3 112.07 ug/m3 11.05 ug/m3 5.92 ug/m3 0.13 mg/m3 25.29 C 78.35 % 3.9 m/s 261.28 Deg N/A
2021-07-22 17:00 N/A 0.51 ug/m3 112.39 ug/m3 7.26 ug/m3 5.33 ug/m3 0.13 mg/m3 26.32 C 72.17 % 4.23 m/s 267.86 Deg N/A
2021-07-22 09:00 N/A 0.39 ug/m3 104.34 ug/m3 7.71 ug/m3 6.44 ug/m3 0.13 mg/m3 24.22 C 81.47 % 2.24 m/s 239.87 Deg N/A
2021-07-22 01:00 N/A 0.55 ug/m3 119.26 ug/m3 7.43 ug/m3 6.21 ug/m3 0.15 mg/m3 24.42 C 77.7 % 2.11 m/s 187.13 Deg N/A
2021-07-21 17:00 N/A 0.45 ug/m3 100.36 ug/m3 7.53 ug/m3 6 ug/m3 0.15 mg/m3 25.18 C 86.95 % 3.78 m/s 234.25 Deg N/A
2021-07-21 09:00 N/A 0.47 ug/m3 112.31 ug/m3 8.5 ug/m3 5.49 ug/m3 0.14 mg/m3 24.04 C 85.77 % 1.39 m/s 220.15 Deg N/A
2021-07-21 01:00 N/A 0.67 ug/m3 123.03 ug/m3 9.95 ug/m3 7.56 ug/m3 0.15 mg/m3 24.1 C 84.97 % 2.37 m/s 39.63 Deg N/A
2021-07-20 17:00 N/A 0.64 ug/m3 116.85 ug/m3 N/A N/A 0.16 mg/m3 25.85 C 76.12 % 3.97 m/s 74.9 Deg N/A
2021-07-20 09:00 N/A N/A 98.18 ug/m3 N/A N/A 0.15 mg/m3 22.86 C 94.09 % 3.65 m/s 257.53 Deg N/A
2021-07-20 01:00 N/A 0.09 ug/m3 112.56 ug/m3 15.63 ug/m3 6.48 ug/m3 0.14 mg/m3 23.19 C 93.03 % 4.04 m/s 265.93 Deg N/A
2021-07-19 17:00 N/A 0.49 ug/m3 121.9 ug/m3 13.95 ug/m3 5.92 ug/m3 0.15 mg/m3 24.13 C 87.52 % 4.92 m/s 299.22 Deg N/A
2021-07-19 09:00 N/A 0.14 ug/m3 99.85 ug/m3 9.81 ug/m3 4.37 ug/m3 0.14 mg/m3 22.56 C 90.11 % 5.1 m/s 328.57 Deg N/A
2021-07-19 01:00 N/A -0.01 ug/m3 112.85 ug/m3 14.38 ug/m3 4.82 ug/m3 0.14 mg/m3 23.25 C 88.62 % 7.82 m/s 307 Deg N/A
2021-07-18 17:00 N/A 0.14 ug/m3 118.95 ug/m3 16.91 ug/m3 6.03 ug/m3 0.14 mg/m3 24.33 C 82 % 9 m/s 285.18 Deg N/A
2021-07-18 09:00 N/A 0.01 ug/m3 103.26 ug/m3 12.05 ug/m3 4.16 ug/m3 0.13 mg/m3 22.68 C 85.91 % 6.89 m/s 299.04 Deg N/A
2021-07-18 01:00 N/A -0.08 ug/m3 102.61 ug/m3 11.83 ug/m3 3.7 ug/m3 0.13 mg/m3 23.03 C 81.89 % 8.89 m/s 302.06 Deg N/A
2021-07-17 17:00 N/A 0.05 ug/m3 104.66 ug/m3 13.85 ug/m3 4.2 ug/m3 0.12 mg/m3 24.3 C 75.3 % 8.47 m/s 299.95 Deg N/A
2021-07-17 09:00 N/A -0.02 ug/m3 92.71 ug/m3 13.26 ug/m3 4.14 ug/m3 0.12 mg/m3 22.9 C 83.33 % 7.43 m/s 308.79 Deg N/A
2021-07-17 01:00 N/A 0.02 ug/m3 93.44 ug/m3 12.94 ug/m3 4.76 ug/m3 0.12 mg/m3 23.65 C 77.31 % 8.18 m/s 303.63 Deg N/A
2021-07-16 17:00 N/A 0.46 ug/m3 96.2 ug/m3 8.57 ug/m3 3.04 ug/m3 0.12 mg/m3 25.48 C 70.02 % 6.12 m/s 309.88 Deg N/A
2021-07-16 09:00 N/A 0.36 ug/m3 71.06 ug/m3 10.36 ug/m3 3.26 ug/m3 0.13 mg/m3 23.86 C 89.27 % 3.11 m/s 298.4 Deg N/A
2021-07-16 01:00 N/A 0.02 ug/m3 81.15 ug/m3 8.12 ug/m3 2.78 ug/m3 0.12 mg/m3 24.3 C 78.09 % 4.65 m/s 294.55 Deg N/A
2021-07-15 17:00 N/A 0.32 ug/m3 87.05 ug/m3 9.22 ug/m3 2.85 ug/m3 0.12 mg/m3 25.35 C 71.14 % 4.94 m/s 304.66 Deg N/A
2021-07-15 09:00 N/A 0.19 ug/m3 67.09 ug/m3 19.87 ug/m3 4.55 ug/m3 0.13 mg/m3 24.37 C 88.4 % 1.96 m/s 140.03 Deg N/A
2021-07-15 01:00 N/A 0.24 ug/m3 73.48 ug/m3 20.26 ug/m3 4.23 ug/m3 0.12 mg/m3 25.41 C 82.4 % 4.24 m/s 322.48 Deg N/A
2021-07-14 17:00 N/A 0.32 ug/m3 92.95 ug/m3 29.42 ug/m3 8.25 ug/m3 0.12 mg/m3 26 C 83.35 % 4.28 m/s 285.77 Deg N/A
2021-07-14 09:00 0.99 ug/m3 -0.07 ug/m3 94.07 ug/m3 10.37 ug/m3 4.46 ug/m3 0.13 mg/m3 24.92 C 91.99 % 2.55 m/s 290.1 Deg 0.1 ug/m3
2021-07-14 01:00 0.92 ug/m3 0.02 ug/m3 106.19 ug/m3 13.05 ug/m3 5.01 ug/m3 0.15 mg/m3 26.29 C 80.05 % 4.41 m/s 179.56 Deg 0.02 ug/m3
2021-07-13 17:00 0.67 ug/m3 0.1 ug/m3 93.74 ug/m3 15.68 ug/m3 3.43 ug/m3 0.12 mg/m3 27.54 C 76.13 % 5.88 m/s 202.43 Deg 0.09 ug/m3
2021-07-13 09:00 1.57 ug/m3 -0.19 ug/m3 76.8 ug/m3 9.05 ug/m3 3.96 ug/m3 0.13 mg/m3 25.12 C 94.37 % 3.79 m/s 168.19 Deg 0.11 ug/m3
2021-07-13 01:00 0.9 ug/m3 -0.02 ug/m3 82.96 ug/m3 10.27 ug/m3 4.04 ug/m3 0.14 mg/m3 26.01 C 88.67 % 2.27 m/s 141.93 Deg 0.03 ug/m3
2021-07-12 17:00 1.04 ug/m3 0.38 ug/m3 90.91 ug/m3 11.2 ug/m3 4.98 ug/m3 0.13 mg/m3 26.7 C 82.97 % 4 m/s 225.6 Deg 0.15 ug/m3
2021-07-12 09:00 7.99 ug/m3 0.34 ug/m3 72.24 ug/m3 12.22 ug/m3 4.65 ug/m3 0.14 mg/m3 24.61 C 87.88 % 2.46 m/s 129.38 Deg 0.96 ug/m3
2021-07-12 01:00 2.21 ug/m3 0.14 ug/m3 88.96 ug/m3 12.77 ug/m3 4.32 ug/m3 0.12 mg/m3 24.93 C 83.05 % 3.1 m/s 243.45 Deg 0.05 ug/m3
2021-07-11 17:00 1.32 ug/m3 0.43 ug/m3 98.03 ug/m3 6.67 ug/m3 3.16 ug/m3 0.11 mg/m3 25.76 C 72.28 % 4.47 m/s 318.06 Deg 0.17 ug/m3
2021-07-11 09:00 3.24 ug/m3 0.84 ug/m3 72.76 ug/m3 12.39 ug/m3 3.53 ug/m3 0.11 mg/m3 24.12 C 85.48 % 3.42 m/s 141.44 Deg 0.25 ug/m3
2021-07-11 01:00 1.96 ug/m3 0.16 ug/m3 84.25 ug/m3 11.18 ug/m3 3.65 ug/m3 0.12 mg/m3 24.91 C 81.63 % 4.45 m/s 276.77 Deg 0.05 ug/m3
2021-07-10 17:00 2.38 ug/m3 0.68 ug/m3 99.3 ug/m3 10.41 ug/m3 3.52 ug/m3 0.11 mg/m3 26.45 C 75.33 % 4.6 m/s 311.12 Deg 0.44 ug/m3
2021-07-10 09:00 3.29 ug/m3 0.22 ug/m3 76.28 ug/m3 14.03 ug/m3 4.26 ug/m3 0.12 mg/m3 25.19 C 87.86 % 4.38 m/s 300.19 Deg 0.14 ug/m3
2021-07-10 01:00 1.55 ug/m3 -0.07 ug/m3 85.54 ug/m3 14.64 ug/m3 5.27 ug/m3 0.13 mg/m3 25.52 C 93.07 % 5.28 m/s 264.79 Deg 0.03 ug/m3
2021-07-09 17:00 0.87 ug/m3 -0.02 ug/m3 83.45 ug/m3 8.84 ug/m3 4.89 ug/m3 0.14 mg/m3 26.65 C 87.95 % 5.93 m/s 263.22 Deg 0.14 ug/m3
2021-07-09 09:00 1.18 ug/m3 -0.1 ug/m3 73.7 ug/m3 5.23 ug/m3 3.94 ug/m3 0.14 mg/m3 25.04 C 91.93 % 3.08 m/s 253.74 Deg 0.04 ug/m3
2021-07-09 01:00 2.53 ug/m3 0.01 ug/m3 79.43 ug/m3 5.74 ug/m3 4.55 ug/m3 0.13 mg/m3 26.21 C 83.12 % 2.69 m/s 279.45 Deg 0.03 ug/m3
2021-07-08 17:00 0.94 ug/m3 0.26 ug/m3 98.59 ug/m3 6.68 ug/m3 4.09 ug/m3 0.13 mg/m3 27.95 C 66.81 % 3.66 m/s 280.67 Deg 0.13 ug/m3
2021-07-08 09:00 2.42 ug/m3 -0.04 ug/m3 77.56 ug/m3 6.66 ug/m3 4.18 ug/m3 0.13 mg/m3 25.29 C 90.82 % 2.09 m/s 213.61 Deg 0.24 ug/m3
2021-07-08 01:00 1.05 ug/m3 0.13 ug/m3 88.63 ug/m3 8.68 ug/m3 4.92 ug/m3 0.13 mg/m3 26.34 C 78.78 % 2.16 m/s 204.94 Deg 0.03 ug/m3
2021-07-07 17:00 1.12 ug/m3 0.38 ug/m3 94.38 ug/m3 9.34 ug/m3 4.44 ug/m3 0.13 mg/m3 27.61 C 68.79 % 2.91 m/s 272.26 Deg 0.14 ug/m3
2021-07-07 09:00 2.21 ug/m3 0.28 ug/m3 91.78 ug/m3 10.3 ug/m3 5 ug/m3 0.13 mg/m3 25.8 C 75.79 % 1.6 m/s 165.15 Deg 0.26 ug/m3
2021-07-06 17:00 N/A N/A N/A N/A N/A N/A N/A N/A 2.95 m/s N/A N/A
2021-07-06 09:00 3.48 ug/m3 0.12 ug/m3 77.26 ug/m3 9.06 ug/m3 3.4 ug/m3 0.12 mg/m3 24.56 C 76.53 % 4.33 m/s 87.04 Deg 0.17 ug/m3
2021-07-06 01:00 4.19 ug/m3 0.14 ug/m3 82.58 ug/m3 18.85 ug/m3 4.5 ug/m3 0.12 mg/m3 25.29 C 79.95 % 4.85 m/s 111.27 Deg 0.06 ug/m3
2021-07-05 17:00 1.21 ug/m3 0.14 ug/m3 92.53 ug/m3 16.71 ug/m3 5.84 ug/m3 0.12 mg/m3 26 C 81.44 % 6.84 m/s 301.03 Deg 0.17 ug/m3
2021-07-05 09:00 2.82 ug/m3 -0.09 ug/m3 84.18 ug/m3 9.02 ug/m3 5.21 ug/m3 0.14 mg/m3 24.84 C 92.18 % 4.19 m/s 277.97 Deg 0.23 ug/m3
2021-07-05 01:00 0.59 ug/m3 0.1 ug/m3 95.69 ug/m3 10.2 ug/m3 6.16 ug/m3 0.16 mg/m3 26.9 C 75.26 % 3.83 m/s 198.36 Deg 0.02 ug/m3
2021-07-04 17:00 1.79 ug/m3 0.78 ug/m3 127.33 ug/m3 10.76 ug/m3 6.59 ug/m3 0.18 mg/m3 28.47 C 58.73 % 3.83 m/s 216.13 Deg 0.13 ug/m3
2021-07-04 09:00 1.28 ug/m3 0.01 ug/m3 125.12 ug/m3 8.59 ug/m3 6.35 ug/m3 0.17 mg/m3 25.7 C 78.26 % 3.84 m/s 204.01 Deg 0.02 ug/m3
2021-07-04 01:00 5.55 ug/m3 0.42 ug/m3 110.39 ug/m3 8.82 ug/m3 4.61 ug/m3 0.15 mg/m3 27.65 C 45.51 % 1.67 m/s 191.12 Deg 0.02 ug/m3
2021-07-03 17:00 2.34 ug/m3 0.83 ug/m3 118.63 ug/m3 8.1 ug/m3 4.93 ug/m3 0.13 mg/m3 29.11 C 41.15 % 3.73 m/s 281.04 Deg 0.1 ug/m3
2021-07-03 09:00 7.01 ug/m3 0.78 ug/m3 86.92 ug/m3 13.86 ug/m3 6.51 ug/m3 0.15 mg/m3 26.07 C 68.77 % 2.7 m/s 186.53 Deg 0.36 ug/m3
2021-07-03 01:00 2.04 ug/m3 0.05 ug/m3 100.48 ug/m3 13.67 ug/m3 5.66 ug/m3 0.13 mg/m3 25.36 C 84.77 % 3.55 m/s 250.86 Deg 0.02 ug/m3
2021-07-02 17:00 1.51 ug/m3 1.47 ug/m3 112.61 ug/m3 17.08 ug/m3 6.24 ug/m3 0.13 mg/m3 28.3 C 59.75 % 3.36 m/s 293.35 Deg 0.13 ug/m3
2021-07-02 09:00 4.05 ug/m3 0.81 ug/m3 81.12 ug/m3 15.21 ug/m3 6.38 ug/m3 0.13 mg/m3 25.68 C 76.71 % 3.82 m/s 81.87 Deg 0.2 ug/m3
2021-07-02 01:00 3.93 ug/m3 0.26 ug/m3 93.18 ug/m3 16.24 ug/m3 4.81 ug/m3 0.12 mg/m3 25.61 C 77.31 % 2.65 m/s 227.35 Deg 0.03 ug/m3
2021-07-01 17:00 3.05 ug/m3 0.21 ug/m3 88.66 ug/m3 21.06 ug/m3 6.64 ug/m3 0.13 mg/m3 26.12 C 87.51 % 4.89 m/s 252.81 Deg 0.67 ug/m3
2021-07-01 09:00 4.82 ug/m3 0.48 ug/m3 76.67 ug/m3 42.24 ug/m3 10.76 ug/m3 0.13 mg/m3 27.36 C 66.99 % 3.42 m/s 243.17 Deg 0.2 ug/m3
2021-07-01 01:00 2.35 ug/m3 0.31 ug/m3 84.9 ug/m3 42.1 ug/m3 8.98 ug/m3 0.13 mg/m3 28.02 C 66.56 % 3.89 m/s 193.08 Deg 0.02 ug/m3
2021-06-30 17:00 6.96 ug/m3 1.09 ug/m3 96.97 ug/m3 81.13 ug/m3 14.85 ug/m3 0.15 mg/m3 31.77 C 50.85 % 4 m/s 211.8 Deg 1.39 ug/m3
2021-06-30 09:00 3.65 ug/m3 1.16 ug/m3 82.34 ug/m3 67.62 ug/m3 15.37 ug/m3 0.13 mg/m3 29.26 C 52.54 % 3.24 m/s 233.68 Deg 0.56 ug/m3
2021-06-30 01:00 2.51 ug/m3 0.78 ug/m3 93.27 ug/m3 56.92 ug/m3 14.17 ug/m3 0.12 mg/m3 30.27 C 43.41 % 6.45 m/s 190.58 Deg 0.04 ug/m3
2021-06-29 17:00 3.94 ug/m3 1.11 ug/m3 91.99 ug/m3 63.02 ug/m3 13.02 ug/m3 0.14 mg/m3 33.09 C 38.34 % 5.18 m/s 169.39 Deg 0.48 ug/m3
2021-06-29 09:00 4.27 ug/m3 0.62 ug/m3 66.34 ug/m3 45.63 ug/m3 12.05 ug/m3 0.11 mg/m3 29.55 C 47.01 % 4.48 m/s 172.14 Deg 0.58 ug/m3
2021-06-29 01:00 1.92 ug/m3 0.18 ug/m3 68.04 ug/m3 57.66 ug/m3 12.21 ug/m3 0.12 mg/m3 28.68 C 55.14 % 6.72 m/s 173.48 Deg 0.04 ug/m3

It is to be noted that the data is provisional and subject to quality assurance procedures. For validated data kindly refer your request to contact.air@era.org.mt